CheckWX is a tool to help pilots better visualize weather data.  It is not intended as a substitute for an official pre-flight weather briefing.

21:13:17 UTC

KVPZ METAR
Porter County Regional Airport
Valparaiso, Indiana, USA
Current

17 mins ago

KVPZ 172056Z AUTO 09003KT 10SM CLR 27/15 A3013 RMK AO2 SLP198 T02720150 58014
Observed
Sep-17 @ 20:56 UTC
Wind
  • 090° at 3 KTS
Visibility
10 SM
Flight Rules
VFR
Cloud Levels
  • Clear skies
Temperature
27°C / 81°F
Dewpoint
15°C / 59°F
Heat Index
27°C / 81°F
Humidity
48%
Altimeter
30.13" Hg
Pressure
1020.32 hPa
Previous

1 hour ago

KVPZ 171956Z AUTO VRB04KT 10SM CLR 27/16 A3015 RMK AO2 SLP203 T02720156
Observed
Sep-17 @ 19:56 UTC
Wind
  • Variable at 4 KTS
Visibility
10 SM
Flight Rules
VFR
Cloud Levels
  • Clear skies
Temperature
27°C / 81°F
Dewpoint
16°C / 61°F
Heat Index
28°C / 82°F
Humidity
51%
Altimeter
30.15" Hg
Pressure
1021.02 hPa
Previous

2 hours ago

KVPZ 171856Z AUTO 09006KT 10SM CLR 27/17 A3016 RMK AO2 SLP208 T02670167
Observed
Sep-17 @ 18:56 UTC
Wind
  • 090° at 6 KTS
Visibility
10 SM
Flight Rules
VFR
Cloud Levels
  • Clear skies
Temperature
27°C / 81°F
Dewpoint
17°C / 63°F
Heat Index
28°C / 82°F
Humidity
54%
Altimeter
30.16" Hg
Pressure
1021.32 hPa